createdAt,value
2022-11-05T00:01:00.542Z,4.32
2022-11-05T00:03:46.093Z,4.50
2022-11-05T00:06:31.403Z,4.13
2022-11-05T00:09:16.866Z,4.57
2022-11-05T00:12:02.585Z,4.28
2022-11-05T00:14:48.139Z,3.83
2022-11-05T00:17:18.572Z,3.58
2022-11-05T00:19:45.310Z,3.63
2022-11-05T00:22:30.595Z,3.60
2022-11-05T00:25:16.612Z,3.60
2022-11-05T00:27:44.416Z,3.70
2022-11-05T00:30:12.294Z,3.60
2022-11-05T00:32:39.240Z,3.75
2022-11-05T00:35:07.782Z,3.40
2022-11-05T00:37:34.521Z,2.83
2022-11-05T00:40:01.208Z,3.00
2022-11-05T00:42:46.522Z,3.00
2022-11-05T00:45:13.789Z,3.13
2022-11-05T00:47:59.021Z,3.03
2022-11-05T00:50:25.861Z,2.80
2022-11-05T00:52:56.724Z,3.05
2022-11-05T00:55:34.681Z,3.47
2022-11-05T00:58:03.436Z,2.97
2022-11-05T01:00:32.064Z,3.30
2022-11-05T01:03:10.997Z,2.85
2022-11-05T01:05:46.939Z,3.05
2022-11-05T01:08:15.142Z,3.17
2022-11-05T01:10:43.429Z,2.60
2022-11-05T01:13:13.168Z,2.80
2022-11-05T01:15:41.266Z,3.13
2022-11-05T01:18:08.282Z,2.78
2022-11-05T01:20:34.985Z,3.00
2022-11-05T01:23:01.666Z,3.20
2022-11-05T01:25:28.462Z,3.00
2022-11-05T01:27:55.458Z,3.05
2022-11-05T01:30:22.181Z,2.90
2022-11-05T01:32:48.868Z,3.00
2022-11-05T01:35:17.301Z,3.17
2022-11-05T01:37:44.481Z,2.83
2022-11-05T01:40:15.024Z,2.55
2022-11-05T01:42:44.197Z,3.00
2022-11-05T01:45:27.839Z,2.97
2022-11-05T01:48:03.535Z,2.88
2022-11-05T01:50:32.695Z,2.88
2022-11-05T01:53:16.702Z,2.92
2022-11-05T01:55:54.478Z,3.05
2022-11-05T01:58:25.025Z,2.70
2022-11-05T02:03:19.124Z,2.83
2022-11-05T02:05:47.829Z,2.83
2022-11-05T02:08:26.021Z,2.70
2022-11-05T02:10:53.101Z,2.95
2022-11-05T02:13:19.762Z,2.88
2022-11-05T02:16:19.615Z,4.40
2022-11-05T02:19:29.193Z,2.97
2022-11-05T02:22:33.471Z,2.95
2022-11-05T02:25:27.579Z,3.13
2022-11-05T02:28:03.480Z,2.90
2022-11-05T02:30:57.292Z,3.30
2022-11-05T02:33:26.837Z,2.90
2022-11-05T02:36:44.733Z,3.03
2022-11-05T02:39:27.818Z,3.20
2022-11-05T02:42:28.395Z,3.25
2022-11-05T02:45:14.718Z,3.78
2022-11-05T02:47:46.328Z,3.60
2022-11-05T02:50:45.454Z,3.13
2022-11-05T02:53:19.941Z,2.97
2022-11-05T02:56:18.216Z,3.55
2022-11-05T02:58:44.948Z,3.20
2022-11-05T03:01:12.514Z,3.17
2022-11-05T03:03:46.055Z,3.67
2022-11-05T03:06:31.615Z,3.40
2022-11-05T03:09:01.346Z,3.30
2022-11-05T03:11:32.563Z,3.75
2022-11-05T03:14:03.536Z,3.22
2022-11-05T03:16:40.547Z,2.80
2022-11-05T03:19:17.149Z,3.10
2022-11-05T03:21:56.327Z,3.25
2022-11-05T03:24:35.656Z,3.30
2022-11-05T03:27:15.618Z,3.53
2022-11-05T03:29:52.045Z,3.58
2022-11-05T03:32:20.992Z,3.35
2022-11-05T03:35:07.631Z,3.28
2022-11-05T03:37:38.614Z,3.08
2022-11-05T03:40:08.798Z,3.53
2022-11-05T03:42:38.858Z,3.45
2022-11-05T03:45:11.146Z,3.15
2022-11-05T03:47:40.898Z,3.38
2022-11-05T03:50:41.066Z,3.17
2022-11-05T03:55:53.736Z,3.55
2022-11-05T03:58:22.439Z,3.50
2022-11-05T04:00:50.769Z,2.92
2022-11-05T04:03:17.576Z,3.65
2022-11-05T04:05:44.587Z,3.90
2022-11-05T04:08:29.882Z,3.60
2022-11-05T04:11:15.303Z,3.22
2022-11-05T04:13:41.984Z,3.20
2022-11-05T04:16:27.118Z,3.90
2022-11-05T04:18:53.756Z,4.05
2022-11-05T04:21:38.992Z,3.72
2022-11-05T04:24:08.599Z,3.88
2022-11-05T04:26:40.735Z,3.40
2022-11-05T04:29:26.642Z,3.50
2022-11-05T04:31:53.908Z,3.72
2022-11-05T04:34:22.194Z,3.60
2022-11-05T04:36:53.195Z,3.45
2022-11-05T04:39:20.988Z,3.63
2022-11-05T04:41:48.655Z,3.80
2022-11-05T04:44:16.647Z,3.28
2022-11-05T04:46:43.536Z,4.15
2022-11-05T04:49:10.179Z,3.75
2022-11-05T04:51:36.960Z,3.72
2022-11-05T04:54:03.760Z,4.00
2022-11-05T04:56:30.507Z,3.60
2022-11-05T04:58:57.300Z,3.90
2022-11-05T05:01:25.414Z,3.75
2022-11-05T05:03:53.997Z,3.65
2022-11-05T05:06:21.847Z,4.60
2022-11-05T05:08:50.899Z,3.80
2022-11-05T05:11:20.377Z,4.30
2022-11-05T05:13:47.617Z,4.20
2022-11-05T05:16:27.038Z,4.20
2022-11-05T05:18:54.505Z,4.35
2022-11-05T05:21:42.225Z,4.43
2022-11-05T05:24:16.674Z,4.15
2022-11-05T05:26:45.501Z,3.97
2022-11-05T05:29:12.756Z,4.78
2022-11-05T05:31:40.467Z,4.22
2022-11-05T05:34:10.497Z,4.30
2022-11-05T05:36:37.236Z,5.15
2022-11-05T05:39:08.094Z,4.35
2022-11-05T05:41:34.798Z,4.25
2022-11-05T05:44:01.498Z,5.43
2022-11-05T05:46:28.186Z,4.40
2022-11-05T05:48:54.976Z,4.13
2022-11-05T05:51:21.715Z,4.00
2022-11-05T05:53:48.433Z,3.97
2022-11-05T05:56:19.159Z,3.80
2022-11-05T05:58:45.911Z,3.40
2022-11-05T06:01:18.976Z,3.33
2022-11-05T06:03:47.454Z,3.20
2022-11-05T06:06:15.722Z,3.50
2022-11-05T06:08:42.770Z,3.13
2022-11-05T06:11:09.802Z,3.50
2022-11-05T06:13:37.277Z,3.17
2022-11-05T06:16:08.831Z,3.10
2022-11-05T06:18:36.421Z,2.90
2022-11-05T06:21:11.957Z,2.90
2022-11-05T06:23:40.471Z,3.05
2022-11-05T06:26:10.640Z,3.17
2022-11-05T06:28:37.330Z,3.50
2022-11-05T06:31:05.861Z,3.45
2022-11-05T06:33:32.520Z,3.75
2022-11-05T06:36:01.394Z,3.72
2022-11-05T06:38:29.435Z,3.97
2022-11-05T06:40:59.382Z,4.47
2022-11-05T06:43:26.939Z,4.28
2022-11-05T06:45:55.690Z,3.92
2022-11-05T06:48:25.434Z,4.03
2022-11-05T06:50:52.382Z,4.25
2022-11-05T06:53:19.430Z,4.13
2022-11-05T06:55:47.880Z,4.20
2022-11-05T06:58:15.444Z,4.03
2022-11-05T07:00:42.657Z,4.70
2022-11-05T07:03:11.539Z,3.97
2022-11-05T07:05:46.330Z,4.18
2022-11-05T07:08:16.500Z,3.53
2022-11-05T07:10:43.326Z,4.00
2022-11-05T07:13:10.666Z,4.15
2022-11-05T07:15:38.036Z,4.22
2022-11-05T07:18:07.505Z,4.03
2022-11-05T07:20:34.996Z,4.40
2022-11-05T07:23:11.710Z,4.20
2022-11-05T07:25:39.195Z,4.20
2022-11-05T07:28:06.141Z,4.00
2022-11-05T07:30:34.341Z,4.18
2022-11-05T07:33:01.196Z,5.00
2022-11-05T07:35:28.170Z,4.00
2022-11-05T07:37:55.463Z,4.10
2022-11-05T07:40:23.885Z,4.35
2022-11-05T07:43:01.622Z,4.50
2022-11-05T07:45:30.561Z,3.90
2022-11-05T07:48:02.431Z,3.90
2022-11-05T07:50:34.177Z,4.20
2022-11-05T07:53:05.905Z,4.05
2022-11-05T07:55:33.150Z,4.20
2022-11-05T07:57:59.981Z,3.92
2022-11-05T08:00:28.017Z,4.03
2022-11-05T08:03:12.270Z,5.03
2022-11-05T08:05:44.497Z,4.43
2022-11-05T08:08:13.160Z,4.43
2022-11-05T08:10:42.596Z,4.15
2022-11-05T08:13:10.177Z,4.47
2022-11-05T08:15:37.625Z,4.97
2022-11-05T08:18:07.881Z,4.72
2022-11-05T08:20:35.897Z,4.72
2022-11-05T08:23:02.562Z,5.45
2022-11-05T08:25:30.885Z,5.00
2022-11-05T08:28:03.729Z,5.05
2022-11-05T08:30:31.492Z,5.57
2022-11-05T08:33:03.805Z,5.32
2022-11-05T08:35:31.145Z,5.68
2022-11-05T08:38:03.202Z,5.85
2022-11-05T08:40:32.485Z,5.45
2022-11-05T08:43:00.580Z,5.60
2022-11-05T08:45:27.706Z,5.88
2022-11-05T08:48:05.363Z,5.93
2022-11-05T08:50:32.540Z,21.88
2022-11-05T08:52:59.817Z,5.63
2022-11-05T08:55:26.984Z,5.72
2022-11-05T08:58:01.660Z,5.90
2022-11-05T09:00:30.647Z,6.30
2022-11-05T09:03:02.173Z,5.72
2022-11-05T09:05:30.441Z,5.45
2022-11-05T09:08:00.970Z,5.78
2022-11-05T09:10:28.659Z,6.00
2022-11-05T09:12:55.872Z,5.60
2022-11-05T09:15:23.421Z,5.80
2022-11-05T09:17:50.569Z,5.88
2022-11-05T09:20:17.450Z,5.85
2022-11-05T09:22:45.080Z,5.88
2022-11-05T09:25:11.803Z,5.60
2022-11-05T09:27:38.600Z,4.80
2022-11-05T09:30:05.798Z,5.00
2022-11-05T09:32:33.751Z,5.72
2022-11-05T09:35:01.227Z,5.35
2022-11-05T09:37:28.835Z,5.65
2022-11-05T09:40:05.437Z,5.40
2022-11-05T09:42:41.212Z,5.57
2022-11-05T09:45:13.507Z,5.88
2022-11-05T09:47:44.524Z,5.13
2022-11-05T09:50:32.593Z,5.47
2022-11-05T09:52:59.793Z,5.13
2022-11-05T09:55:29.549Z,4.78
2022-11-05T09:58:03.438Z,5.20
2022-11-05T10:00:32.434Z,5.25
2022-11-05T10:03:07.087Z,4.75
2022-11-05T10:05:37.010Z,4.90
2022-11-05T10:08:10.043Z,4.32
2022-11-05T10:10:51.008Z,4.97
2022-11-05T10:13:39.692Z,5.05
2022-11-05T10:16:30.914Z,4.93
2022-11-05T10:19:24.622Z,5.47
2022-11-05T10:22:09.014Z,4.85
2022-11-05T10:24:36.935Z,4.40
2022-11-05T10:27:05.249Z,4.97
2022-11-05T10:29:34.561Z,4.75
2022-11-05T10:32:05.759Z,4.30
2022-11-05T10:34:36.838Z,5.18
2022-11-05T10:37:04.506Z,4.25
2022-11-05T10:39:33.128Z,4.47
2022-11-05T10:42:14.950Z,4.22
2022-11-05T10:44:47.483Z,4.28
2022-11-05T10:47:56.015Z,5.03
2022-11-05T10:50:28.116Z,4.28
2022-11-05T10:52:59.260Z,4.25
2022-11-05T10:55:34.309Z,4.15
2022-11-05T10:58:33.038Z,3.95
2022-11-05T11:01:01.548Z,3.90
2022-11-05T11:03:57.377Z,4.70
2022-11-05T11:06:31.406Z,4.38
2022-11-05T11:09:01.585Z,4.60
2022-11-05T11:11:42.614Z,4.20
2022-11-05T11:14:12.444Z,5.22
2022-11-05T11:16:43.807Z,4.68
2022-11-05T11:19:31.994Z,4.38
2022-11-05T11:22:06.018Z,4.72
2022-11-05T11:24:42.381Z,3.97
2022-11-05T11:27:13.792Z,4.30
2022-11-05T11:29:48.148Z,4.22
2022-11-05T11:32:31.960Z,4.30
2022-11-05T11:34:59.629Z,3.75
2022-11-05T11:37:30.594Z,3.53
2022-11-05T11:40:04.210Z,3.72
2022-11-05T11:42:39.877Z,4.05
2022-11-05T11:45:29.612Z,3.40
2022-11-05T11:47:57.870Z,3.83
2022-11-05T11:50:39.338Z,3.75
2022-11-05T11:53:18.221Z,3.97
2022-11-05T11:56:03.606Z,3.38
2022-11-05T11:58:51.136Z,4.10
2022-11-05T12:01:45.741Z,3.72
2022-11-05T12:04:30.921Z,3.70
2022-11-05T12:07:00.623Z,3.67
2022-11-05T12:09:58.189Z,4.20
2022-11-05T12:12:43.004Z,3.42
2022-11-05T12:15:27.618Z,3.35
2022-11-05T12:18:02.925Z,3.53
2022-11-05T12:21:34.802Z,3.13
2022-11-05T12:24:28.681Z,4.07
2022-11-05T12:27:37.279Z,4.75
2022-11-05T12:30:18.654Z,4.70
2022-11-05T12:33:00.221Z,4.88
2022-11-05T12:35:32.643Z,3.53
2022-11-05T12:38:17.310Z,4.15
2022-11-05T12:40:50.087Z,4.63
2022-11-05T12:43:31.219Z,7.72
2022-11-05T12:46:29.077Z,3.40
2022-11-05T12:49:07.788Z,2.95
2022-11-05T12:51:53.022Z,3.28
2022-11-05T12:54:42.900Z,3.00
2022-11-05T12:57:12.763Z,4.05
2022-11-05T12:59:58.172Z,4.20
2022-11-05T13:02:42.830Z,2.65
2022-11-05T13:05:38.959Z,2.70
2022-11-05T13:08:25.330Z,2.60
2022-11-05T13:11:05.112Z,2.63
2022-11-05T13:14:13.259Z,2.95
2022-11-05T13:16:50.691Z,2.42
2022-11-05T13:19:32.069Z,2.88
2022-11-05T13:22:12.972Z,2.75
2022-11-05T13:24:50.661Z,2.50
2022-11-05T13:28:12.651Z,2.38
2022-11-05T13:30:57.905Z,2.58
2022-11-05T13:33:43.725Z,2.53
2022-11-05T13:36:41.632Z,2.70
2022-11-05T13:39:17.217Z,3.10
2022-11-05T13:42:14.134Z,2.90
2022-11-05T13:45:30.065Z,3.15
2022-11-05T13:48:11.502Z,3.00
2022-11-05T13:50:50.335Z,3.40
2022-11-05T13:53:55.091Z,3.75
2022-11-05T13:56:50.673Z,3.47
2022-11-05T13:59:32.476Z,3.58
2022-11-05T14:02:02.757Z,3.75
2022-11-05T14:04:41.268Z,4.03
2022-11-05T14:07:22.290Z,3.28
2022-11-05T14:10:14.281Z,3.20
2022-11-05T14:12:41.756Z,3.03
2022-11-05T14:15:24.441Z,3.58
2022-11-05T14:18:06.120Z,3.58
2022-11-05T14:20:32.849Z,3.08
2022-11-05T14:23:20.676Z,3.55
2022-11-05T14:25:56.325Z,3.10
2022-11-05T14:28:49.835Z,4.95
2022-11-05T14:31:23.298Z,3.70
2022-11-05T14:34:09.690Z,4.40
2022-11-05T14:36:37.604Z,4.20
2022-11-05T14:39:28.039Z,4.45
2022-11-05T14:41:58.347Z,4.30
2022-11-05T14:44:26.450Z,4.90
2022-11-05T14:46:59.652Z,4.90
2022-11-05T14:49:31.327Z,5.68
2022-11-05T14:52:00.823Z,4.28
2022-11-05T14:54:36.914Z,4.65
2022-11-05T14:57:04.114Z,5.60
2022-11-05T14:59:35.212Z,4.80
2022-11-05T15:02:03.673Z,4.60
2022-11-05T15:04:33.324Z,4.65
2022-11-05T15:07:05.872Z,3.77
2022-11-05T15:10:08.908Z,4.30
2022-11-05T15:13:03.007Z,5.38
2022-11-05T15:15:40.212Z,3.95
2022-11-05T15:18:21.909Z,3.97
2022-11-05T15:20:51.454Z,3.90
2022-11-05T15:23:21.474Z,3.80
2022-11-05T15:25:59.863Z,3.33
2022-11-05T15:28:46.340Z,4.05
2022-11-05T15:31:13.080Z,3.70
2022-11-05T15:33:41.564Z,3.80
2022-11-05T15:36:23.610Z,3.72
2022-11-05T15:39:15.143Z,4.00
2022-11-05T15:41:38.196Z,3.65
2022-11-05T15:44:04.945Z,3.53
2022-11-05T15:46:31.744Z,3.47
2022-11-05T15:49:06.993Z,3.25
2022-11-05T15:51:35.544Z,3.10
2022-11-05T15:54:29.174Z,3.53
2022-11-05T15:56:56.484Z,3.92
2022-11-05T15:59:25.545Z,3.67
2022-11-05T16:02:04.146Z,3.42
2022-11-05T16:04:34.469Z,2.67
2022-11-05T16:07:08.903Z,3.33
2022-11-05T16:09:38.615Z,3.22
2022-11-05T16:12:44.013Z,3.72
2022-11-05T16:15:10.649Z,3.30
2022-11-05T16:17:48.616Z,3.35
2022-11-05T16:20:23.606Z,3.60
2022-11-05T16:22:53.383Z,4.13
2022-11-05T16:25:24.398Z,4.03
2022-11-05T16:27:51.129Z,3.40
2022-11-05T16:30:19.514Z,3.72
2022-11-05T16:32:47.297Z,3.58
2022-11-05T16:35:25.078Z,4.07
2022-11-05T16:37:52.799Z,4.30
2022-11-05T16:40:22.091Z,4.40
2022-11-05T16:42:51.415Z,4.25
2022-11-05T16:45:20.565Z,4.25
2022-11-05T16:47:47.872Z,4.43
2022-11-05T16:50:27.142Z,4.38
2022-11-05T16:52:53.933Z,4.15
2022-11-05T16:55:20.873Z,3.67
2022-11-05T16:57:52.998Z,4.28
2022-11-05T17:00:21.220Z,4.45
2022-11-05T17:02:48.372Z,4.72
2022-11-05T17:05:25.619Z,4.38
2022-11-05T17:07:52.706Z,4.55
2022-11-05T17:10:21.184Z,4.60
2022-11-05T17:12:48.797Z,4.88
2022-11-05T17:15:18.462Z,4.60
2022-11-05T17:17:45.926Z,4.25
2022-11-05T17:20:39.928Z,3.92
2022-11-05T17:23:12.983Z,3.67
2022-11-05T17:25:41.676Z,4.18
2022-11-05T17:28:09.514Z,4.20
2022-11-05T17:30:38.605Z,4.90
2022-11-05T17:33:07.097Z,6.20
2022-11-05T17:35:33.851Z,6.13
2022-11-05T17:38:00.616Z,9.27
2022-11-05T17:40:28.374Z,21.92
2022-11-05T17:42:55.148Z,10.95
2022-11-05T17:45:21.935Z,8.57
2022-11-05T17:47:48.746Z,8.57
2022-11-05T17:50:16.670Z,8.25
2022-11-05T17:52:44.235Z,7.43
2022-11-05T17:55:18.424Z,6.32
2022-11-05T17:57:49.977Z,5.30
2022-11-05T18:00:21.417Z,5.30
2022-11-05T18:02:49.629Z,4.68
2022-11-05T18:05:20.740Z,4.90
2022-11-05T18:07:48.299Z,4.65
2022-11-05T18:10:16.765Z,5.32
2022-11-05T18:12:44.204Z,5.78
2022-11-05T18:15:11.154Z,5.60
2022-11-05T18:17:38.195Z,5.38
2022-11-05T18:20:10.719Z,5.00
2022-11-05T18:22:39.871Z,5.85
2022-11-05T18:25:08.077Z,6.20
2022-11-05T18:27:35.562Z,5.60
2022-11-05T18:30:02.730Z,5.97
2022-11-05T18:32:29.500Z,5.70
2022-11-05T18:34:56.247Z,4.50
2022-11-05T18:37:22.971Z,5.43
2022-11-05T18:39:53.463Z,6.00
2022-11-05T18:42:21.668Z,5.80
2022-11-05T18:44:49.036Z,6.93
2022-11-05T18:47:19.516Z,6.07
2022-11-05T18:52:13.211Z,5.80
2022-11-05T18:54:40.034Z,5.82
2022-11-05T18:57:07.305Z,5.72
2022-11-05T18:59:38.050Z,6.50
2022-11-05T19:02:06.151Z,6.03
2022-11-05T19:04:34.738Z,6.15
2022-11-05T19:07:04.734Z,5.88
2022-11-05T19:09:35.628Z,5.82
2022-11-05T19:12:03.522Z,5.60
2022-11-05T19:14:33.144Z,5.50
2022-11-05T19:17:00.768Z,5.73
2022-11-05T19:19:27.821Z,5.65
2022-11-05T19:21:54.590Z,5.75
2022-11-05T19:24:21.359Z,5.05
2022-11-05T19:26:48.627Z,5.38
2022-11-05T19:29:15.505Z,4.93
2022-11-05T19:31:44.120Z,5.15
2022-11-05T19:34:11.385Z,5.35
2022-11-05T19:36:38.091Z,4.85
2022-11-05T19:39:08.758Z,6.00
2022-11-05T19:41:35.929Z,5.47
2022-11-05T19:44:03.398Z,5.68
2022-11-05T19:46:31.124Z,4.60
2022-11-05T19:48:59.258Z,4.63
2022-11-05T19:51:27.819Z,4.88
2022-11-05T19:53:55.738Z,5.32
2022-11-05T19:56:24.894Z,5.55
2022-11-05T19:58:53.194Z,5.30
2022-11-05T20:01:22.483Z,4.65
2022-11-05T20:03:49.923Z,5.60
2022-11-05T20:06:23.326Z,5.63
2022-11-05T20:11:40.029Z,4.07
2022-11-05T20:14:09.358Z,4.70
2022-11-05T20:16:40.662Z,5.43
2022-11-05T20:19:13.292Z,5.75
2022-11-05T20:21:42.740Z,5.78
2022-11-05T20:24:11.832Z,5.60
2022-11-05T20:26:38.679Z,5.20
2022-11-05T20:29:06.136Z,4.78
2022-11-05T20:31:32.889Z,5.07
2022-11-05T20:33:59.643Z,5.05
2022-11-05T20:36:26.740Z,4.40
2022-11-05T20:39:02.885Z,4.97
2022-11-05T20:41:30.708Z,4.25
2022-11-05T20:43:57.692Z,4.55
2022-11-05T20:46:24.738Z,4.18
2022-11-05T20:48:51.942Z,5.18
2022-11-05T20:51:20.977Z,4.80
2022-11-05T20:53:48.826Z,4.32
2022-11-05T20:56:20.430Z,5.78
2022-11-05T20:58:47.463Z,5.47
2022-11-05T21:01:16.571Z,7.00
2022-11-05T21:03:44.898Z,4.75
2022-11-05T21:06:12.540Z,8.18
2022-11-05T21:08:39.964Z,8.65
2022-11-05T21:11:07.414Z,6.15
2022-11-05T21:13:34.676Z,12.80
2022-11-05T21:16:02.440Z,11.45
2022-11-05T21:18:32.241Z,7.60
2022-11-05T21:21:00.456Z,7.32
2022-11-05T21:23:28.846Z,10.98
2022-11-05T21:25:55.756Z,10.32
2022-11-05T21:28:22.805Z,7.45
2022-11-05T21:30:49.842Z,5.82
2022-11-05T21:33:18.390Z,5.30
2022-11-05T21:35:49.054Z,5.25
2022-11-05T21:38:17.352Z,4.90
2022-11-05T21:40:45.040Z,4.65
2022-11-05T21:43:12.831Z,4.93
2022-11-05T21:45:44.316Z,4.45
2022-11-05T21:48:11.865Z,5.72
2022-11-05T21:50:57.926Z,5.88
2022-11-05T21:53:43.417Z,5.10
2022-11-05T21:56:47.178Z,6.55
2022-11-05T21:59:35.345Z,6.38
2022-11-05T22:02:03.123Z,7.13
2022-11-05T22:04:32.622Z,7.95
2022-11-05T22:06:59.467Z,6.10
2022-11-05T22:09:27.277Z,4.78
2022-11-05T22:11:54.711Z,4.55
2022-11-05T22:14:21.783Z,4.72
2022-11-05T22:16:48.529Z,4.93
2022-11-05T22:19:15.271Z,4.90
2022-11-05T22:21:42.212Z,5.20
2022-11-05T22:24:09.318Z,5.03
2022-11-05T22:26:36.986Z,4.53
2022-11-05T22:29:04.995Z,6.45
2022-11-05T22:31:35.986Z,5.13
2022-11-05T22:34:11.744Z,4.70
2022-11-05T22:36:38.688Z,5.40
2022-11-05T22:39:06.286Z,3.60
2022-11-05T22:41:33.020Z,4.85
2022-11-05T22:43:59.726Z,3.92
2022-11-05T22:46:27.184Z,4.38
2022-11-05T22:48:54.178Z,4.28
2022-11-05T22:51:26.194Z,4.07
2022-11-05T22:53:54.698Z,5.38
2022-11-05T22:56:24.125Z,4.25
2022-11-05T22:58:57.040Z,4.72
2022-11-05T23:01:24.442Z,4.63
2022-11-05T23:03:53.212Z,4.15
2022-11-05T23:06:41.700Z,5.70
2022-11-05T23:09:34.442Z,4.90
2022-11-05T23:12:01.916Z,4.85
2022-11-05T23:14:29.117Z,4.50
2022-11-05T23:17:14.249Z,4.13
2022-11-05T23:20:00.411Z,4.35
2022-11-05T23:22:49.076Z,5.25
2022-11-05T23:25:19.924Z,4.20
2022-11-05T23:27:50.113Z,4.43
2022-11-05T23:30:20.300Z,3.90
2022-11-05T23:32:47.611Z,4.35
2022-11-05T23:35:14.797Z,4.78
2022-11-05T23:37:59.993Z,5.47
2022-11-05T23:40:29.753Z,4.70
2022-11-05T23:43:16.158Z,4.72
2022-11-05T23:45:59.013Z,4.57
2022-11-05T23:48:31.129Z,4.40
2022-11-05T23:51:04.140Z,4.25
2022-11-05T23:53:43.054Z,4.68
2022-11-05T23:56:15.297Z,4.22
2022-11-05T23:58:42.838Z,4.20
